Aérodrome :
LOGIN :

S'inscrire | Disclaimer

   EN    FR    IT 

 










Légende :    VFR   VFR Marginal   IFR   IFR Intensif   IFR Très Intensif
Visi : 
Plafond : 
>= 8 km
>= 3000ft
5 à 8 km
1000 à 3000 ft
1500m à 5 km
500 à 1000 ft
800 à 1500m
200 à 500 ft
< 800m
< 200 ft
Symboles :   Orages  Brouillard  Fortes neiges  Fortes précipitations  Vent > 20 kt
SIGMETs :   Divers  Orages  Givrage  Turbulence  Onde Orograph.  Cendres Volcan.







- Altitude de l'aérodrome : 1106 ft
- Voir les cartes d'approche


LFSO - Nancy / Ochey

DERNIER METAR :
  • 141300Z AUTO 21017KT 9999 FEW027 SCT045 BKN060 06/02 Q0999 TEMPO 24015G35KT 4000 TSRA BKN020CB

METARs EXPIRÉS :
  • 141230Z AUTO 22020KT 9999 BKN025 BKN032 OVC048 05/02 Q1000 TEMPO 24015G35KT 4000 TSRA BKN020CB
  • 141200Z AUTO 22020KT 9999 OVC026 06/02 Q1001 TEMPO 24015G30KT
  • 141130Z AUTO 22020KT 9999 BKN025 BKN068 BKN078 06/02 Q1001 TEMPO 24015G30KT
  • 141100Z AUTO 23020KT 9999 BKN022 BKN100 06/02 Q1002 TEMPO 24015G30KT
  • 141030Z AUTO 23020KT 9999 SCT020 SCT110 05/02 Q1002 TEMPO 24015G30KT

TAF TAF LFSO
Valide du 14 à 09h jusqu'au 15 à 09h UTC


140800Z 1409/1509 23015KT 9999 SCT025
TEMPO 1409/1509 24015G30KT
TEMPO 1414/1418 24015G35KT 4000 TSRA BKN020CB
PROB40
TEMPO 1415/1418 24015G35KT 2000 TSRAGS BKN010 BKN020CB
TEMPO 1419/1509 BKN012
Pas de NOTAMs connus pour ce terrain.
1 SIGMET publié pour la FIR Reims (LFEE) :
 
Turbulence forte
LFEE SIGMET 4 VALID 141300/141500 LFPW
LFEE REIMS FIR/UIR SEV TURB OBS AT 1300Z S OF N4700 AND W OF E00530 FL160/250 STNR NC=



MET'MAP, la Météo Aéronautique d'un coup d'oeil ! - Copyright ORBIFLY Décembre 2007 - Disclaimer

ORBIFLY MET'MAP TEAM :

Programmation & Développement : Alexandra Zaïnal
Conception & Développement : Baudouin d'Aumeries
Co-Programmation & Développement : Marc-Olivier Méhu
Soutien technique & logistique : Manuel Goepfert

Contact : metmap@orbifly.com




SOURCES & CREDITS :

   NOAA